Latest Coastal Weather Observations for Larapuna (Eddystone Point)

IDT60701

Issued at 5:03 am EDT Tuesday 28 February 2017 (issued every 10 minutes, with the page automatically refreshed every 10 minutes)

About coastal observations | Map of coastal stations | Coastal observations for TAS | Marine services | Other Formats
Station Details ID: 092045 Name: LARAPUNA (EDDYSTONE POINT) Lat: -40.99 Lon: 148.35 Height: 19.7 m
Data from the previous 72 hours. | See also: Recent months at Larapuna (Eddystone Point)
Date/Time
EDT
Temp
°C
Wind Pressure Rain since
9am
mm
Weather Cloud Vis
km
Sea
Height
m
Swell
Dir  Spd
kts
Gust
kts
hPa Trend Height
m
Period
s
Dir
28/04:30am 16.0 SSW 4 5 1024.5 - 0.0 - - - - - - -
28/04:00am 16.2 S 4 4 1024.7 - 0.0 - - - - - - -
28/03:30am 16.1 S 4 4 1025.0 - 0.0 - - - - - - -
28/03:00am 16.2 S 3 4 1025.3 - 0.0 - - - - - - -
28/02:30am 16.2 CALM 0 0 1025.4 - 0.0 - - - - - - -
28/02:00am 16.9 E 3 4 1025.6 - 0.0 - - - - - - -
28/01:30am 17.0 NE 3 4 1025.8 - 0.0 - - - - - - -
28/01:00am 17.3 NNE 4 4 1026.0 - 0.0 - - - - - - -
28/12:30am 17.7 NNE 6 7 1026.1 - 0.0 - - - - - - -
28/12:00am 17.8 NNE 7 8 1026.3 - 0.0 - - - - - - -
 
Date/Time
EDT
Temp
°C
Wind Pressure Rain since
9am
mm
Weather Cloud Vis
km
Sea
Height
m
Swell
Dir  Spd
kts
Gust
kts
hPa Trend Height
m
Period
s
Dir
27/11:30pm 17.5 NE 8 10 1026.4 - 0.0 - - - - - - -
27/11:00pm 17.6 NE 8 9 1026.6 - 0.0 - - - - - - -
27/10:30pm 17.6 NE 10 11 1026.6 - 0.0 - - - - - - -
27/10:00pm 17.6 NE 9 11 1026.8 - 0.0 - - - - - - -
27/09:30pm 17.5 NE 9 10 1026.9 - 0.0 - - - - - - -
27/09:00pm 17.8 NE 9 9 1026.9 - 0.0 - - - - - - -
27/08:30pm 17.5 NE 9 11 1026.6 - 0.0 - - - - - - -
27/08:00pm 17.6 NE 8 9 1026.4 - 0.0 - - - - - - -
27/07:30pm 18.0 NE 11 13 1026.3 - 0.0 - - - - - - -
27/07:00pm 18.7 NE 11 12 1026.0 - 0.0 - - - - - - -
27/06:30pm 19.1 NE 13 15 1025.9 - 0.0 - - - - - - -
27/06:00pm 19.4 NE 13 15 1025.8 - 0.0 - - - - - - -
27/05:30pm 19.4 NNE 14 15 1026.0 - 0.0 - - - - - - -
27/05:00pm 19.5 NNE 15 18 1026.1 - 0.0 - - - - - - -
27/04:30pm 19.8 NNE 15 17 1026.1 - 0.0 - - - - - - -
27/04:00pm 19.9 NNE 14 16 1026.3 - 0.0 - - - - - - -
27/03:30pm 20.3 NNE 15 18 1026.3 - 0.0 - - - - - - -
27/03:00pm 20.6 NE 13 15 1026.6 - 0.0 - - - - - - -
27/02:30pm 21.1 NNE 13 15 1027.0 - 0.0 - - - - - - -
27/02:00pm 21.2 NE 13 15 1027.1 - 0.0 - - - - - - -
27/01:30pm 20.8 NE 11 13 1027.2 - 0.0 - - - - - - -
27/01:00pm 20.9 NNE 11 13 1027.2 - 0.0 - - - - - - -
27/12:30pm 20.8 NNE 10 11 1027.5 - 0.0 - - - - - - -
27/12:00pm 20.7 NNE 9 10 1027.7 - 0.0 - - - - - - -
27/11:30am 20.9 ENE 5 7 1027.9 - 0.0 - - - - - - -
27/11:00am 20.1 E 4 5 1027.9 - 0.0 - - - - - - -
27/10:30am 19.7 E 2 4 1028.0 - 0.0 - - - - - - -
27/10:00am 19.1 SSW 5 6 1027.9 - 0.0 - - - - - - -
27/09:30am 20.4 S 3 4 1027.7 - 0.0 - - - - - - -
27/09:00am 20.0 ENE 5 6 1027.6 - 0.0 - - - - - - -
27/08:30am 19.5 ENE 5 6 1027.5 - 0.0 - - - - - - -
27/08:00am 18.6 ENE 6 7 1027.3 - 0.0 - - - - - - -
27/07:30am 17.6 NE 7 8 1027.1 - 0.0 - - - - - - -
27/07:00am 16.9 NE 9 10 1026.8 - 0.0 - - - - - - -
27/06:30am 17.2 NE 10 14 1026.5 - 0.0 - - - - - - -
27/06:00am 17.6 NE 8 9 1026.4 - 0.0 - - - - - - -
27/05:30am 17.6 NNE 7 9 1026.3 - 0.0 - - - - - - -
27/05:00am 17.5 NNE 9 10 1026.1 - 0.0 - - - - - - -
27/04:30am 16.9 NE 9 10 1026.1 - 0.0 - - - - - - -
27/04:00am 17.0 NE 10 11 1026.3 - 0.0 - - - - - - -
27/03:30am 17.2 NNE 10 11 1026.5 - 0.0 - - - - - - -
27/03:00am 17.3 NNE 10 12 1026.6 - 0.0 - - - - - - -
27/02:30am 17.2 NNE 9 11 1026.7 - 0.0 - - - - - - -
27/02:00am 17.3 NNE 10 12 1026.8 - 0.0 - - - - - - -
27/01:30am 17.4 NNE 10 11 1027.0 - 0.0 - - - - - - -
27/01:00am 16.9 NE 9 11 1027.1 - 0.0 - - - - - - -
27/12:30am 17.2 NE 9 10 1027.1 - 0.0 - - - - - - -
27/12:00am 17.3 NNE 10 11 1027.2 - 0.0 - - - - - - -
 
Date/Time
EDT
Temp
°C
Wind Pressure Rain since
9am
mm
Weather Cloud Vis
km
Sea
Height
m
Swell
Dir  Spd
kts
Gust
kts
hPa Trend Height
m
Period
s
Dir
26/11:30pm 17.4 NNE 10 11 1027.3 - 0.0 - - - - - - -
26/11:00pm 17.4 NNE 10 12 1027.3 - 0.0 - - - - - - -
26/10:30pm 17.4 NNE 11 13 1027.2 - 0.0 - - - - - - -
26/10:00pm 17.4 NNE 12 14 1027.2 - 0.0 - - - - - - -
26/09:30pm 17.2 NNE 13 14 1027.2 - 0.0 - - - - - - -
26/09:00pm 17.2 NE 13 15 1026.9 - 0.0 - - - - - - -
26/08:30pm 17.2 NNE 13 15 1026.7 - 0.0 - - - - - - -
26/08:00pm 17.1 NNE 13 15 1026.5 - 0.0 - - - - - - -
26/07:30pm 17.2 NNE 12 14 1026.3 - 0.0 - - - - - - -
26/07:00pm 17.4 NNE 13 14 1026.2 - 0.0 - - - - - - -
26/06:30pm 17.8 NNE 12 14 1026.2 - 0.0 - - - - - - -
26/06:00pm 18.3 NNE 11 13 1026.1 - 0.0 - - - - - - -
26/05:30pm 18.4 NNE 10 12 1026.0 - 0.0 - - - - - - -
26/05:00pm 19.0 NNE 10 13 1026.1 - 0.0 - - - - - - -
26/04:30pm 19.2 NNE 9 11 1026.2 - 0.0 - - - - - - -
26/04:00pm 19.3 NE 11 12 1026.3 - 0.0 - - - - - - -
26/03:30pm 19.2 NNE 10 12 1026.5 - 0.0 - - - - - - -
26/03:00pm 19.2 NNE 9 12 1026.6 - 0.0 - - - - - - -
26/02:30pm 18.9 NNE 10 12 1027.0 - 0.0 - - - - - - -
26/02:00pm 19.7 NNE 9 11 1027.1 - 0.0 - - - - - - -
26/01:30pm 18.7 NNE 9 11 1027.0 - 0.0 - - - - - - -
26/01:00pm 19.8 NNE 8 10 1027.3 - 0.0 - - - - - - -
26/12:30pm 19.0 NNE 8 10 1027.5 - 0.0 - - - - - - -
26/12:00pm 18.7 NNE 8 10 1027.6 - 0.0 - - - - - - -
26/11:30am 18.5 NNE 7 9 1027.7 - 0.0 - - - - - - -
26/11:00am 18.9 NE 8 10 1027.7 - 0.0 - - - - - - -
26/10:30am 18.4 NNE 4 5 1027.6 - 0.0 - - - - - - -
26/10:00am 18.5 NE 4 5 1027.5 - 0.0 - - - - - - -
26/09:30am 17.1 SSW 4 5 1027.4 - 0.0 - - - - - - -
26/09:00am 15.9 SW 3 4 1027.2 - 0.2 - - - - - - -
26/08:30am 15.4 SSW 5 6 1027.3 - 0.2 - - - - - - -
26/08:00am 13.9 SW 7 9 1027.2 - 0.2 - - - - - - -
26/07:30am 14.4 SSW 9 10 1026.9 - 0.2 - - - - - - -
26/07:00am 15.0 NE 7 8 1026.5 - 0.2 - - - - - - -
26/06:30am 14.7 NE 7 8 1026.1 - 0.2 - - - - - - -
26/06:00am 15.0 NNE 7 8 1026.0 - 0.2 - - - - - - -
26/05:30am 15.3 NNE 9 10 1025.3 - 0.2 - - - - - - -
26/05:00am 15.2 NNE 9 11 1025.2 - 0.2 - - - - - - -
26/04:30am 14.8 N 7 8 1025.7 - 0.2 - - - - - - -
26/04:00am 15.4 NNE 8 10 1025.8 - 0.2 - - - - - - -
26/03:30am 15.4 NE 8 10 1026.1 - 0.2 - - - - - - -
26/03:00am 15.5 NE 9 11 1026.2 - 0.2 - - - - - - -
26/02:30am 15.4 NE 10 12 1026.6 - 0.2 - - - - - - -
26/02:00am 15.4 NE 10 13 1026.8 - 0.2 - - - - - - -
26/01:30am 15.4 NE 13 16 1026.8 - 0.2 - - - - - - -
26/01:00am 15.3 NE 11 14 1027.1 - 0.2 - - - - - - -
26/12:30am 15.3 ENE 10 12 1027.3 - 0.2 - - - - - - -
26/12:00am 15.4 ENE 10 13 1027.5 - 0.2 - - - - - - -
 
Date/Time
EDT
Temp
°C
Wind Pressure Rain since
9am
mm
Weather Cloud Vis
km
Sea
Height
m
Swell
Dir  Spd
kts
Gust
kts
hPa Trend Height
m
Period
s
Dir
25/11:30pm 15.4 ENE 10 13 1027.4 - 0.2 - - - - - - -
25/11:00pm 15.3 E 11 13 1027.2 - 0.2 - - - - - - -
25/10:30pm 15.2 ENE 12 14 1026.9 - 0.2 - - - - - - -
25/10:00pm 15.4 ENE 10 13 1027.0 - 0.2 - - - - - - -
25/09:30pm 15.4 ENE 9 12 1027.0 - 0.2 - - - - - - -
25/09:00pm 15.5 E 9 13 1026.8 - 0.2 - - - - - - -
25/08:30pm 15.4 ENE 10 12 1026.6 - 0.2 - - - - - - -
25/08:00pm 15.3 ENE 12 16 1026.5 - 0.2 - - - - - - -
25/07:30pm 15.4 E 11 14 1026.4 - 0.2 - - - - - - -
25/07:00pm 15.5 E 12 15 1026.1 - 0.2 - - - - - - -
25/06:30pm 15.8 ENE 12 16 1026.1 - 0.2 - - - - - - -
25/06:00pm 16.0 ENE 12 14 1026.1 - 0.2 - - - - - - -
25/05:30pm 16.4 E 11 15 1025.9 - 0.2 - - - - - - -
25/05:00pm 18.2 ESE 11 16 1025.7 - 0.2 - - - - - - -
25/04:30pm 18.5 ESE 10 14 1025.7 - 0.2 - - - - - - -
25/04:00pm 18.3 SE 11 15 1025.7 - 0.2 - - - - - - -
25/03:30pm 18.4 SE 11 16 1025.8 - 0.2 - - - - - - -
25/03:00pm 18.6 SE 11 14 1025.9 - 0.2 - - - - - - -
25/02:30pm 18.8 SE 10 14 1026.3 - 0.2 - - - - - - -
25/02:00pm 19.2 SE 12 16 1026.5 - 0.2 - - - - - - -
25/01:30pm 19.4 SE 12 16 1026.2 - 0.2 - - - - - - -
25/01:00pm 18.5 SSE 14 18 1026.5 - 0.2 - - - - - - -
25/12:30pm 18.0 SSE 14 17 1026.8 - 0.2 - - - - - - -
25/12:00pm 17.4 SSE 15 17 1026.7 - 0.2 - - - - - - -
25/11:30am 17.7 SSE 16 19 1026.9 - 0.2 - - - - - - -
25/11:00am 16.9 S 18 23 1027.0 - 0.2 - - - - - - -
25/10:30am 15.7 SSE 18 22 1026.9 - 0.2 - - - - - - -
25/10:00am 15.8 S 18 22 1026.7 - 0.2 - - - - - - -
25/09:30am 15.0 S 20 24 1026.5 - 0.0 - - - - - - -
25/09:00am 14.9 S 22 26 1026.2 - 5.0 - - - - - - -
25/08:30am 14.4 SSE 21 25 1025.9 - 5.0 - - - - - - -
25/08:00am 14.3 SSE 22 27 1025.8 - 5.0 - - - - - - -
25/07:30am 14.3 SSE 21 25 1025.4 - 5.0 - - - - - - -
25/07:00am 14.3 S 22 26 1025.0 - 5.0 - - - - - - -
25/06:30am 14.3 S 21 25 1024.7 - 5.0 - - - - - - -
25/06:00am 14.2 S 21 25 1024.4 - 5.0 - - - - - - -
25/05:30am 14.2 SSE 20 24 1024.1 - 5.0 - - - - - - -

Other Formats:

Comma delimited format used in spreadsheet applications
http://www.bom.gov.au/fwo/IDT60701/IDT60701.94983.axf

JavaScript Object Notation format (JSON) in row-major order
http://www.bom.gov.au/fwo/IDT60701/IDT60701.94983.json